TimeMST,TemperatureF,Dew PointF,Humidity,Sea Level PressureIn,VisibilityMPH,Wind Direction,Wind SpeedMPH,Gust SpeedMPH,PrecipitationIn,Events,Conditions,WindDirDegrees,DateUTC
12:53 AM,16.0,10.9,81,30.05,10.0,East,24.2,-,0.00,Snow,Light Snow,80,2013-02-19 07:53:00
1:53 AM,14.0,10.0,84,30.03,10.0,ENE,23.0,-,0.00,,Clear,70,2013-02-19 08:53:00
2:53 AM,12.9,9.0,84,30.01,10.0,ENE,23.0,-,0.00,,Clear,70,2013-02-19 09:53:00
3:53 AM,12.9,9.0,84,29.99,9.0,ENE,21.9,-,0.00,Snow,Light Snow,70,2013-02-19 10:53:00
4:53 AM,12.9,9.0,84,29.98,9.0,East,20.7,-,0.00,,Clear,80,2013-02-19 11:53:00
5:53 AM,12.0,8.1,84,29.99,10.0,ENE,18.4,-,0.00,,Clear,70,2013-02-19 12:53:00
6:53 AM,10.9,7.0,84,29.99,9.0,ENE,20.7,-,0.00,Snow,Light Snow,70,2013-02-19 13:53:00
7:53 AM,10.9,7.0,84,29.98,9.0,ENE,21.9,-,0.00,Snow,Light Snow,70,2013-02-19 14:53:00
8:53 AM,12.9,8.1,81,29.96,9.0,ENE,23.0,-,0.00,Snow,Light Snow,70,2013-02-19 15:53:00
9:53 AM,15.1,9.0,77,29.95,9.0,ENE,21.9,-,0.00,Snow,Light Snow,70,2013-02-19 16:53:00
11:53 AM,19.0,12.9,77,29.91,9.0,East,21.9,-,0.00,,Overcast,80,2013-02-19 18:53:00
12:53 PM,19.9,14.0,78,29.91,10.0,East,19.6,-,N/A,,Clear,80,2013-02-19 19:53:00
1:53 PM,21.9,15.1,75,29.89,10.0,East,19.6,27.6,N/A,,Clear,80,2013-02-19 20:53:00
2:53 PM,23.0,16.0,74,29.88,9.0,East,23.0,-,0.00,Snow,Light Snow,90,2013-02-19 21:53:00
3:53 PM,21.9,16.0,78,29.88,10.0,East,21.9,-,0.00,,Scattered Clouds,90,2013-02-19 22:53:00
5:53 PM,19.9,15.1,81,29.90,10.0,East,20.7,-,N/A,,Scattered Clouds,90,2013-02-20 00:53:00
6:53 PM,19.0,14.0,81,29.91,10.0,East,16.1,21.9,N/A,,Overcast,80,2013-02-20 01:53:00
7:53 PM,17.1,12.0,81,29.93,10.0,ENE,11.5,-,N/A,,Overcast,70,2013-02-20 02:53:00
8:53 PM,16.0,10.9,81,29.94,10.0,ENE,9.2,-,N/A,,Mostly Cloudy,70,2013-02-20 03:53:00
9:53 PM,16.0,10.9,81,29.95,10.0,ENE,8.1,-,N/A,,Mostly Cloudy,70,2013-02-20 04:53:00
10:53 PM,14.0,10.0,84,29.96,10.0,ENE,6.9,-,N/A,,Scattered Clouds,70,2013-02-20 05:53:00
11:53 PM,15.1,10.0,80,29.97,10.0,ENE,4.6,-,N/A,,Overcast,70,2013-02-20 06:53:00